createdAt,value
2023-08-04T00:04:25.802Z,1.20
2023-08-04T00:09:27.393Z,0.95
2023-08-04T00:14:29.050Z,0.90
2023-08-04T00:19:30.658Z,0.98
2023-08-04T00:24:32.261Z,0.85
2023-08-04T00:29:33.907Z,1.02
2023-08-04T00:34:35.519Z,0.90
2023-08-04T00:39:37.102Z,1.10
2023-08-04T00:44:38.738Z,1.00
2023-08-04T00:49:41.547Z,1.00
2023-08-04T00:54:45.101Z,1.05
2023-08-04T00:59:46.761Z,1.08
2023-08-04T01:04:48.466Z,0.90
2023-08-04T01:10:04.958Z,1.02
2023-08-04T01:15:08.024Z,0.90
2023-08-04T01:20:10.213Z,1.10
2023-08-04T01:25:11.916Z,1.00
2023-08-04T01:30:19.378Z,0.77
2023-08-04T01:35:21.263Z,0.80
2023-08-04T01:40:22.997Z,0.93
2023-08-04T01:45:24.607Z,0.85
2023-08-04T01:50:26.258Z,1.05
2023-08-04T01:55:27.866Z,0.95
2023-08-04T02:00:29.493Z,0.90
2023-08-04T02:05:31.058Z,1.00
2023-08-04T02:10:35.073Z,1.00
2023-08-04T02:15:36.674Z,1.30
2023-08-04T02:20:38.292Z,0.93
2023-08-04T02:25:39.874Z,0.70
2023-08-04T02:30:41.539Z,0.80
2023-08-04T02:35:43.179Z,0.70
2023-08-04T02:40:44.975Z,0.90
2023-08-04T02:45:52.147Z,0.70
2023-08-04T02:51:04.049Z,1.08
2023-08-04T02:56:13.561Z,1.08
2023-08-04T03:01:15.935Z,1.00
2023-08-04T03:06:17.618Z,0.90
2023-08-04T03:11:19.197Z,1.00
2023-08-04T03:16:20.842Z,1.35
2023-08-04T03:21:22.418Z,1.10
2023-08-04T03:26:24.053Z,0.90
2023-08-04T03:31:25.810Z,0.90
2023-08-04T03:36:27.466Z,1.25
2023-08-04T03:41:29.821Z,1.13
2023-08-04T03:46:31.478Z,1.02
2023-08-04T03:51:33.097Z,1.27
2023-08-04T03:56:34.727Z,1.17
2023-08-04T04:01:36.394Z,1.10
2023-08-04T04:06:38.154Z,1.23
2023-08-04T04:11:39.730Z,1.35
2023-08-04T04:16:41.345Z,1.30
2023-08-04T04:21:43.586Z,1.10
2023-08-04T04:26:45.192Z,1.35
2023-08-04T04:31:47.009Z,1.60
2023-08-04T04:36:48.737Z,1.30
2023-08-04T04:41:50.389Z,1.30
2023-08-04T04:46:52.210Z,1.20
2023-08-04T04:51:53.851Z,1.65
2023-08-04T04:56:55.539Z,1.50
2023-08-04T05:01:57.225Z,1.25
2023-08-04T05:06:58.878Z,1.20
2023-08-04T05:12:00.472Z,1.48
2023-08-04T05:17:02.103Z,1.35
2023-08-04T05:22:03.851Z,1.33
2023-08-04T05:27:06.150Z,1.45
2023-08-04T05:32:08.088Z,0.98
2023-08-04T05:37:09.777Z,1.65
2023-08-04T05:42:11.383Z,1.23
2023-08-04T05:47:13.272Z,1.30
2023-08-04T05:52:14.959Z,1.40
2023-08-04T05:57:24.332Z,1.00
2023-08-04T06:02:25.955Z,1.00
2023-08-04T06:07:27.605Z,1.17
2023-08-04T06:12:30.801Z,1.20
2023-08-04T06:17:34.180Z,1.02
2023-08-04T06:22:36.701Z,1.00
2023-08-04T06:27:38.401Z,1.30
2023-08-04T06:32:42.548Z,0.80
2023-08-04T06:37:44.225Z,0.98
2023-08-04T06:42:45.976Z,0.82
2023-08-04T06:47:47.811Z,1.08
2023-08-04T06:52:49.398Z,0.85
2023-08-04T06:57:52.236Z,0.55
2023-08-04T07:02:53.941Z,0.60
2023-08-04T07:07:55.909Z,0.90
2023-08-04T07:12:57.740Z,0.47
2023-08-04T07:17:59.399Z,0.40
2023-08-04T07:23:01.020Z,0.70
2023-08-04T07:28:02.654Z,0.80
2023-08-04T07:33:08.014Z,0.70
2023-08-04T07:38:09.696Z,0.60
2023-08-04T07:43:13.232Z,0.70
2023-08-04T07:48:15.025Z,0.63
2023-08-04T07:53:16.832Z,0.60
2023-08-04T07:58:18.404Z,0.52
2023-08-04T08:03:20.118Z,0.65
2023-08-04T08:08:21.860Z,0.73
2023-08-04T08:13:30.101Z,0.57
2023-08-04T08:18:31.629Z,0.75
2023-08-04T08:23:33.594Z,0.80
2023-08-04T08:28:35.309Z,0.90
2023-08-04T08:33:36.982Z,0.80
2023-08-04T08:38:38.579Z,0.70
2023-08-04T08:43:45.128Z,0.73
2023-08-04T08:48:47.289Z,0.70
2023-08-04T08:53:49.540Z,0.60
2023-08-04T08:58:51.391Z,0.50
2023-08-04T09:03:53.101Z,0.45
2023-08-04T09:08:55.339Z,0.47
2023-08-04T09:13:57.649Z,0.60
2023-08-04T09:19:07.453Z,0.50
2023-08-04T09:24:14.440Z,0.93
2023-08-04T09:29:16.253Z,0.80
2023-08-04T09:34:17.946Z,0.68
2023-08-04T09:39:19.544Z,0.70
2023-08-04T09:44:22.238Z,0.80
2023-08-04T09:49:25.193Z,0.80
2023-08-04T09:54:26.808Z,0.65
2023-08-04T09:59:29.304Z,0.70
2023-08-04T10:04:31.630Z,0.60
2023-08-04T10:09:35.840Z,0.50
2023-08-04T10:14:37.683Z,0.73
2023-08-04T10:19:39.459Z,0.50
2023-08-04T10:24:44.255Z,0.93
2023-08-04T10:29:46.565Z,2.03
2023-08-04T10:34:49.122Z,2.70
2023-08-04T10:39:56.967Z,2.95
2023-08-04T10:45:07.358Z,2.85
2023-08-04T10:50:09.395Z,2.83
2023-08-04T10:55:13.715Z,2.38
2023-08-04T11:00:16.078Z,2.13
2023-08-04T11:05:18.004Z,2.00
2023-08-04T11:10:19.886Z,1.88
2023-08-04T11:15:25.269Z,1.50
2023-08-04T11:20:33.433Z,1.83
2023-08-04T11:25:35.954Z,1.90
2023-08-04T11:30:40.380Z,1.90
2023-08-04T11:35:41.966Z,2.20
2023-08-04T11:41:01.045Z,2.30
2023-08-04T11:46:07.858Z,2.78
2023-08-04T11:51:09.844Z,2.55
2023-08-04T11:56:24.740Z,3.00
2023-08-04T12:01:35.885Z,2.25
2023-08-04T12:06:38.862Z,2.95
2023-08-04T12:11:49.473Z,2.92
2023-08-04T12:17:00.418Z,2.95
2023-08-04T12:22:05.382Z,2.60
2023-08-04T12:27:07.542Z,2.90
2023-08-04T12:32:09.208Z,2.75
2023-08-04T12:37:11.135Z,2.53
2023-08-04T12:42:12.840Z,2.90
2023-08-04T12:47:14.634Z,2.33
2023-08-04T12:52:16.338Z,2.45
2023-08-04T12:57:18.075Z,2.30
2023-08-04T13:02:19.799Z,2.72
2023-08-04T13:07:21.441Z,3.40
2023-08-04T13:12:23.166Z,3.92
2023-08-04T13:17:28.309Z,4.30
2023-08-04T13:22:29.920Z,3.80
2023-08-04T13:27:31.877Z,3.70
2023-08-04T13:32:33.548Z,4.10
2023-08-04T13:37:35.233Z,3.70
2023-08-04T13:42:36.851Z,4.38
2023-08-04T13:47:39.174Z,4.25
2023-08-04T13:52:40.863Z,4.30
2023-08-04T13:57:42.673Z,3.85
2023-08-04T14:02:44.589Z,4.00
2023-08-04T14:08:14.077Z,3.75
2023-08-04T14:18:17.499Z,3.90
2023-08-04T14:23:19.655Z,4.03
2023-08-04T14:28:22.505Z,4.10
2023-08-04T14:33:24.141Z,3.60
2023-08-04T14:38:25.724Z,3.30
2023-08-04T14:43:27.335Z,4.00
2023-08-04T14:48:29.131Z,3.80
2023-08-04T14:53:30.790Z,3.58
2023-08-04T14:58:32.590Z,3.95
2023-08-04T15:03:37.971Z,3.60
2023-08-04T15:08:40.353Z,4.05
2023-08-04T15:13:45.236Z,4.00
2023-08-04T15:18:46.900Z,4.22
2023-08-04T15:23:48.953Z,4.43
2023-08-04T15:28:53.612Z,3.47
2023-08-04T15:33:55.564Z,4.30
2023-08-04T15:38:57.211Z,4.30
2023-08-04T15:43:58.831Z,4.75
2023-08-04T15:49:00.438Z,5.00
2023-08-04T15:54:02.085Z,5.03
2023-08-04T15:59:03.927Z,4.55
2023-08-04T16:04:05.631Z,5.10
2023-08-04T16:09:07.624Z,5.57
2023-08-04T16:14:09.304Z,5.40
2023-08-04T16:19:10.858Z,5.53
2023-08-04T16:24:12.488Z,6.53
2023-08-04T16:29:14.090Z,5.72
2023-08-04T16:34:15.710Z,5.55
2023-08-04T16:39:17.526Z,6.32
2023-08-04T16:44:19.453Z,6.25
2023-08-04T16:49:22.925Z,6.85
2023-08-04T16:54:24.579Z,5.57
2023-08-04T16:59:26.165Z,5.10
2023-08-04T17:04:29.163Z,4.22
2023-08-04T17:09:30.772Z,5.28
2023-08-04T17:14:32.557Z,5.22
2023-08-04T17:19:34.163Z,5.63
2023-08-04T17:24:35.894Z,5.93
2023-08-04T17:29:37.540Z,5.20
2023-08-04T17:34:39.256Z,6.07
2023-08-04T17:39:40.829Z,6.75
2023-08-04T17:44:42.416Z,5.75
2023-08-04T17:49:45.777Z,6.20
2023-08-04T17:54:47.594Z,6.10
2023-08-04T17:59:55.742Z,5.85
2023-08-04T18:04:57.436Z,6.72
2023-08-04T18:09:59.029Z,6.80
2023-08-04T18:15:00.826Z,6.82
2023-08-04T18:20:02.393Z,6.20
2023-08-04T18:25:04.157Z,6.13
2023-08-04T18:30:07.236Z,6.05
2023-08-04T18:35:09.525Z,5.80
2023-08-04T18:40:12.120Z,5.50
2023-08-04T18:45:14.994Z,5.50
2023-08-04T18:50:16.585Z,5.85
2023-08-04T18:55:18.134Z,6.13
2023-08-04T19:00:22.731Z,5.85
2023-08-04T19:05:24.453Z,5.80
2023-08-04T19:10:26.278Z,5.63
2023-08-04T19:15:27.862Z,5.95
2023-08-04T19:20:29.445Z,6.72
2023-08-04T19:25:31.094Z,5.53
2023-08-04T19:30:32.699Z,5.75
2023-08-04T19:35:34.319Z,6.00
2023-08-04T19:40:35.899Z,5.85
2023-08-04T19:45:37.516Z,6.18
2023-08-04T19:50:39.207Z,5.95
2023-08-04T19:55:46.483Z,6.70
2023-08-04T20:00:50.594Z,7.05
2023-08-04T20:05:52.933Z,6.85
2023-08-04T20:10:58.490Z,7.05
2023-08-04T20:16:07.544Z,6.90
2023-08-04T20:21:09.871Z,7.07
2023-08-04T20:26:13.563Z,7.57
2023-08-04T20:31:18.691Z,9.00
2023-08-04T20:36:20.314Z,8.75
2023-08-04T20:41:24.823Z,7.85
2023-08-04T20:46:26.445Z,8.02
2023-08-04T20:51:28.289Z,8.50
2023-08-04T20:56:29.842Z,7.45
2023-08-04T21:01:31.506Z,7.25
2023-08-04T21:06:33.240Z,7.18
2023-08-04T21:11:37.729Z,7.10
2023-08-04T21:16:40.060Z,7.38
2023-08-04T21:21:41.645Z,7.38
2023-08-04T21:26:43.212Z,7.15
2023-08-04T21:31:48.646Z,7.20
2023-08-04T21:36:50.530Z,6.93
2023-08-04T21:41:52.409Z,7.13
2023-08-04T21:46:54.078Z,6.68
2023-08-04T21:51:55.729Z,6.65
2023-08-04T21:56:57.429Z,6.57
2023-08-04T22:02:01.969Z,6.57
2023-08-04T22:07:03.669Z,6.70
2023-08-04T22:12:08.323Z,6.55
2023-08-04T22:17:09.987Z,7.28
2023-08-04T22:22:12.977Z,6.40
2023-08-04T22:27:15.383Z,6.20
2023-08-04T22:32:17.091Z,6.03
2023-08-04T22:37:18.692Z,6.20
2023-08-04T22:42:20.241Z,6.40
2023-08-04T22:47:21.863Z,7.10
2023-08-04T22:52:24.305Z,6.38
2023-08-04T22:57:25.924Z,6.97
2023-08-04T23:02:27.575Z,7.38
2023-08-04T23:07:29.319Z,7.13
2023-08-04T23:12:30.904Z,6.95
2023-08-04T23:17:32.558Z,7.78
2023-08-04T23:22:34.272Z,7.07
2023-08-04T23:27:35.827Z,6.35
2023-08-04T23:32:37.419Z,7.28
2023-08-04T23:37:39.010Z,6.65
2023-08-04T23:42:40.593Z,6.57
2023-08-04T23:47:42.188Z,6.68
2023-08-04T23:52:43.820Z,6.50
2023-08-04T23:57:45.829Z,6.95
